sensor_id;sensor_type;location;lat;lon;timestamp;P1;durP1;ratioP1;P2;durP2;ratioP2
76540;SDS011;65385;55.772;37.658;2022-12-16T00:00:29;27.33;;;12.82;;
76540;SDS011;65385;55.772;37.658;2022-12-16T00:01:30;31.17;;;13.45;;
76540;SDS011;65385;55.772;37.658;2022-12-16T00:02:31;31.10;;;12.93;;
76540;SDS011;65385;55.772;37.658;2022-12-16T00:03:31;22.77;;;10.25;;
76540;SDS011;65385;55.772;37.658;2022-12-16T00:04:32;21.58;;;11.57;;
76540;SDS011;65385;55.772;37.658;2022-12-16T00:05:33;25.83;;;12.43;;
76540;SDS011;65385;55.772;37.658;2022-12-16T00:06:36;23.35;;;11.25;;
76540;SDS011;65385;55.772;37.658;2022-12-16T00:07:37;26.25;;;12.55;;
76540;SDS011;65385;55.772;37.658;2022-12-16T00:08:38;28.25;;;14.40;;
76540;SDS011;65385;55.772;37.658;2022-12-16T00:09:39;24.58;;;12.48;;
76540;SDS011;65385;55.772;37.658;2022-12-16T00:10:39;26.40;;;13.52;;
76540;SDS011;65385;55.772;37.658;2022-12-16T00:11:52;26.83;;;12.65;;
76540;SDS011;65385;55.772;37.658;2022-12-16T00:12:53;21.80;;;11.95;;
76540;SDS011;65385;55.772;37.658;2022-12-16T00:13:53;26.17;;;12.07;;
76540;SDS011;65385;55.772;37.658;2022-12-16T00:14:54;24.92;;;11.52;;
76540;SDS011;65385;55.772;37.658;2022-12-16T00:15:55;28.60;;;12.50;;
76540;SDS011;65385;55.772;37.658;2022-12-16T00:16:55;25.35;;;12.57;;
76540;SDS011;65385;55.772;37.658;2022-12-16T00:17:56;29.08;;;12.27;;
76540;SDS011;65385;55.772;37.658;2022-12-16T00:18:56;24.67;;;12.20;;
76540;SDS011;65385;55.772;37.658;2022-12-16T00:19:57;24.23;;;12.10;;
76540;SDS011;65385;55.772;37.658;2022-12-16T00:20:58;23.50;;;10.43;;
76540;SDS011;65385;55.772;37.658;2022-12-16T00:21:58;25.25;;;10.23;;
76540;SDS011;65385;55.772;37.658;2022-12-16T00:22:59;26.30;;;12.43;;
76540;SDS011;65385;55.772;37.658;2022-12-16T00:24:00;25.73;;;12.27;;
76540;SDS011;65385;55.772;37.658;2022-12-16T00:25:00;23.50;;;11.60;;
76540;SDS011;65385;55.772;37.658;2022-12-16T00:26:01;25.55;;;10.80;;
76540;SDS011;65385;55.772;37.658;2022-12-16T00:27:02;23.48;;;10.82;;
76540;SDS011;65385;55.772;37.658;2022-12-16T00:28:03;23.48;;;11.38;;
76540;SDS011;65385;55.772;37.658;2022-12-16T00:29:03;24.35;;;12.02;;
76540;SDS011;65385;55.772;37.658;2022-12-16T00:30:04;22.05;;;11.43;;
76540;SDS011;65385;55.772;37.658;2022-12-16T00:31:05;23.50;;;11.38;;
76540;SDS011;65385;55.772;37.658;2022-12-16T00:32:06;19.83;;;10.45;;
76540;SDS011;65385;55.772;37.658;2022-12-16T00:33:07;23.13;;;10.65;;
76540;SDS011;65385;55.772;37.658;2022-12-16T00:34:08;27.35;;;12.55;;
76540;SDS011;65385;55.772;37.658;2022-12-16T00:35:08;22.90;;;11.63;;
76540;SDS011;65385;55.772;37.658;2022-12-16T00:36:09;22.88;;;10.73;;
76540;SDS011;65385;55.772;37.658;2022-12-16T00:37:10;18.88;;;9.73;;
76540;SDS011;65385;55.772;37.658;2022-12-16T00:38:13;21.58;;;9.75;;
76540;SDS011;65385;55.772;37.658;2022-12-16T00:39:14;20.73;;;9.80;;
76540;SDS011;65385;55.772;37.658;2022-12-16T00:40:15;19.45;;;10.18;;
76540;SDS011;65385;55.772;37.658;2022-12-16T00:41:15;20.88;;;11.35;;
76540;SDS011;65385;55.772;37.658;2022-12-16T00:42:16;22.90;;;11.35;;
76540;SDS011;65385;55.772;37.658;2022-12-16T00:43:16;19.33;;;9.93;;
76540;SDS011;65385;55.772;37.658;2022-12-16T00:44:17;19.70;;;10.40;;
76540;SDS011;65385;55.772;37.658;2022-12-16T00:45:18;24.83;;;10.98;;
76540;SDS011;65385;55.772;37.658;2022-12-16T00:46:18;20.85;;;9.45;;
76540;SDS011;65385;55.772;37.658;2022-12-16T00:47:19;22.77;;;11.43;;
76540;SDS011;65385;55.772;37.658;2022-12-16T00:48:20;20.50;;;10.52;;
76540;SDS011;65385;55.772;37.658;2022-12-16T00:49:23;18.08;;;9.38;;
76540;SDS011;65385;55.772;37.658;2022-12-16T00:50:24;22.75;;;10.18;;
76540;SDS011;65385;55.772;37.658;2022-12-16T00:51:24;21.40;;;11.27;;
76540;SDS011;65385;55.772;37.658;2022-12-16T00:52:25;19.10;;;9.35;;
76540;SDS011;65385;55.772;37.658;2022-12-16T00:53:26;24.73;;;11.65;;
76540;SDS011;65385;55.772;37.658;2022-12-16T00:54:27;26.15;;;10.35;;
76540;SDS011;65385;55.772;37.658;2022-12-16T00:55:27;19.35;;;8.98;;
76540;SDS011;65385;55.772;37.658;2022-12-16T00:56:28;21.90;;;9.60;;
76540;SDS011;65385;55.772;37.658;2022-12-16T00:57:29;19.80;;;9.40;;
76540;SDS011;65385;55.772;37.658;2022-12-16T00:58:29;25.15;;;11.80;;
76540;SDS011;65385;55.772;37.658;2022-12-16T00:59:30;25.40;;;11.43;;
76540;SDS011;65385;55.772;37.658;2022-12-16T01:00:31;20.00;;;9.40;;
76540;SDS011;65385;55.772;37.658;2022-12-16T01:01:31;20.67;;;10.57;;
76540;SDS011;65385;55.772;37.658;2022-12-16T01:02:32;19.95;;;9.65;;
76540;SDS011;65385;55.772;37.658;2022-12-16T01:03:33;18.25;;;10.27;;
76540;SDS011;65385;55.772;37.658;2022-12-16T01:04:34;17.35;;;9.02;;
76540;SDS011;65385;55.772;37.658;2022-12-16T01:05:36;16.05;;;9.02;;
76540;SDS011;65385;55.772;37.658;2022-12-16T01:06:37;13.40;;;7.05;;
76540;SDS011;65385;55.772;37.658;2022-12-16T01:07:37;19.58;;;8.52;;
76540;SDS011;65385;55.772;37.658;2022-12-16T01:08:38;21.48;;;9.55;;
76540;SDS011;65385;55.772;37.658;2022-12-16T01:09:39;20.00;;;8.35;;
76540;SDS011;65385;55.772;37.658;2022-12-16T01:10:40;20.20;;;10.18;;
76540;SDS011;65385;55.772;37.658;2022-12-16T01:11:40;22.02;;;9.70;;
76540;SDS011;65385;55.772;37.658;2022-12-16T01:12:41;24.27;;;10.18;;
76540;SDS011;65385;55.772;37.658;2022-12-16T01:13:42;18.92;;;9.05;;
76540;SDS011;65385;55.772;37.658;2022-12-16T01:14:43;16.63;;;8.70;;
76540;SDS011;65385;55.772;37.658;2022-12-16T01:15:44;19.45;;;9.63;;
76540;SDS011;65385;55.772;37.658;2022-12-16T01:16:44;18.35;;;10.18;;
76540;SDS011;65385;55.772;37.658;2022-12-16T01:17:45;17.38;;;9.40;;
76540;SDS011;65385;55.772;37.658;2022-12-16T01:18:45;22.25;;;10.63;;
76540;SDS011;65385;55.772;37.658;2022-12-16T01:19:46;21.83;;;10.43;;
76540;SDS011;65385;55.772;37.658;2022-12-16T01:20:47;20.17;;;9.65;;
76540;SDS011;65385;55.772;37.658;2022-12-16T01:21:47;17.48;;;8.50;;
76540;SDS011;65385;55.772;37.658;2022-12-16T01:22:48;18.60;;;9.85;;
76540;SDS011;65385;55.772;37.658;2022-12-16T01:23:48;22.83;;;10.75;;
76540;SDS011;65385;55.772;37.658;2022-12-16T01:24:49;22.27;;;9.20;;
76540;SDS011;65385;55.772;37.658;2022-12-16T01:25:51;21.17;;;10.13;;
76540;SDS011;65385;55.772;37.658;2022-12-16T01:26:53;17.08;;;8.48;;
76540;SDS011;65385;55.772;37.658;2022-12-16T01:27:53;17.10;;;9.05;;
76540;SDS011;65385;55.772;37.658;2022-12-16T01:28:54;14.10;;;8.05;;
76540;SDS011;65385;55.772;37.658;2022-12-16T01:29:55;17.80;;;8.70;;
76540;SDS011;65385;55.772;37.658;2022-12-16T01:30:56;18.65;;;10.25;;
76540;SDS011;65385;55.772;37.658;2022-12-16T01:32:00;19.60;;;8.13;;
76540;SDS011;65385;55.772;37.658;2022-12-16T01:33:01;18.73;;;8.57;;
76540;SDS011;65385;55.772;37.658;2022-12-16T01:34:01;17.38;;;8.88;;
76540;SDS011;65385;55.772;37.658;2022-12-16T01:35:02;14.65;;;8.35;;
76540;SDS011;65385;55.772;37.658;2022-12-16T01:36:04;19.02;;;8.25;;
76540;SDS011;65385;55.772;37.658;2022-12-16T01:37:10;15.20;;;8.05;;
76540;SDS011;65385;55.772;37.658;2022-12-16T01:38:11;10.77;;;6.05;;
76540;SDS011;65385;55.772;37.658;2022-12-16T01:39:12;14.93;;;8.75;;
76540;SDS011;65385;55.772;37.658;2022-12-16T01:40:17;19.25;;;8.68;;
76540;SDS011;65385;55.772;37.658;2022-12-16T01:41:20;18.38;;;9.15;;
76540;SDS011;65385;55.772;37.658;2022-12-16T01:42:22;10.35;;;6.68;;
76540;SDS011;65385;55.772;37.658;2022-12-16T01:43:30;13.55;;;7.38;;
76540;SDS011;65385;55.772;37.658;2022-12-16T01:44:33;16.33;;;8.57;;
76540;SDS011;65385;55.772;37.658;2022-12-16T01:45:34;16.00;;;7.50;;
76540;SDS011;65385;55.772;37.658;2022-12-16T01:46:35;19.38;;;8.85;;
76540;SDS011;65385;55.772;37.658;2022-12-16T01:47:37;19.73;;;8.35;;
76540;SDS011;65385;55.772;37.658;2022-12-16T01:48:55;19.52;;;8.55;;
76540;SDS011;65385;55.772;37.658;2022-12-16T01:50:04;14.82;;;7.43;;
76540;SDS011;65385;55.772;37.658;2022-12-16T01:51:13;21.17;;;9.55;;
76540;SDS011;65385;55.772;37.658;2022-12-16T01:52:22;17.35;;;9.10;;
76540;SDS011;65385;55.772;37.658;2022-12-16T01:53:28;14.77;;;7.53;;
76540;SDS011;65385;55.772;37.658;2022-12-16T01:54:39;14.80;;;7.63;;
76540;SDS011;65385;55.772;37.658;2022-12-16T01:55:47;16.48;;;8.27;;
76540;SDS011;65385;55.772;37.658;2022-12-16T01:56:50;19.30;;;8.88;;
76540;SDS011;65385;55.772;37.658;2022-12-16T01:57:58;17.30;;;8.10;;
76540;SDS011;65385;55.772;37.658;2022-12-16T01:59:03;18.50;;;8.70;;
76540;SDS011;65385;55.772;37.658;2022-12-16T02:00:04;16.52;;;8.27;;
76540;SDS011;65385;55.772;37.658;2022-12-16T02:01:13;16.73;;;9.02;;
76540;SDS011;65385;55.772;37.658;2022-12-16T02:02:15;14.25;;;8.02;;
76540;SDS011;65385;55.772;37.658;2022-12-16T02:03:17;15.77;;;9.30;;
76540;SDS011;65385;55.772;37.658;2022-12-16T02:04:18;12.52;;;6.82;;
76540;SDS011;65385;55.772;37.658;2022-12-16T02:05:18;15.70;;;8.68;;
76540;SDS011;65385;55.772;37.658;2022-12-16T02:06:20;17.83;;;8.75;;
76540;SDS011;65385;55.772;37.658;2022-12-16T02:07:20;14.65;;;7.75;;
76540;SDS011;65385;55.772;37.658;2022-12-16T02:08:21;17.85;;;8.90;;
76540;SDS011;65385;55.772;37.658;2022-12-16T02:09:22;16.83;;;8.38;;
76540;SDS011;65385;55.772;37.658;2022-12-16T02:10:36;19.60;;;9.68;;
76540;SDS011;65385;55.772;37.658;2022-12-16T02:12:58;17.67;;;8.80;;
76540;SDS011;65385;55.772;37.658;2022-12-16T02:15:30;16.10;;;8.18;;
76540;SDS011;65385;55.772;37.658;2022-12-16T02:17:54;21.40;;;9.95;;
76540;SDS011;65385;55.772;37.658;2022-12-16T02:21:50;17.65;;;8.00;;
76540;SDS011;65385;55.772;37.658;2022-12-16T02:27:10;16.40;;;8.80;;
76540;SDS011;65385;55.772;37.658;2022-12-16T02:39:58;11.05;;;5.85;;
76540;SDS011;65385;55.772;37.658;2022-12-16T02:41:01;10.60;;;5.97;;
76540;SDS011;65385;55.772;37.658;2022-12-16T02:42:12;13.48;;;7.38;;
76540;SDS011;65385;55.772;37.658;2022-12-16T02:43:18;8.60;;;6.00;;
76540;SDS011;65385;55.772;37.658;2022-12-16T02:45:50;14.45;;;7.85;;
76540;SDS011;65385;55.772;37.658;2022-12-16T02:46:52;12.93;;;6.97;;
76540;SDS011;65385;55.772;37.658;2022-12-16T02:47:55;16.73;;;7.97;;
76540;SDS011;65385;55.772;37.658;2022-12-16T02:48:56;14.98;;;8.65;;
76540;SDS011;65385;55.772;37.658;2022-12-16T02:49:56;15.75;;;7.40;;
76540;SDS011;65385;55.772;37.658;2022-12-16T02:50:57;16.60;;;8.82;;
76540;SDS011;65385;55.772;37.658;2022-12-16T02:51:58;10.27;;;5.78;;
76540;SDS011;65385;55.772;37.658;2022-12-16T02:53:00;16.25;;;8.15;;
76540;SDS011;65385;55.772;37.658;2022-12-16T02:54:02;12.50;;;6.28;;
76540;SDS011;65385;55.772;37.658;2022-12-16T02:55:04;15.32;;;8.85;;
76540;SDS011;65385;55.772;37.658;2022-12-16T03:00:08;14.35;;;7.18;;
76540;SDS011;65385;55.772;37.658;2022-12-16T03:03:53;13.90;;;6.93;;
76540;SDS011;65385;55.772;37.658;2022-12-16T03:04:57;4.75;;;3.90;;
76540;SDS011;65385;55.772;37.658;2022-12-16T03:06:23;13.70;;;6.53;;
76540;SDS011;65385;55.772;37.658;2022-12-16T03:07:25;7.10;;;4.32;;
76540;SDS011;65385;55.772;37.658;2022-12-16T03:08:30;15.48;;;8.38;;
76540;SDS011;65385;55.772;37.658;2022-12-16T03:09:34;16.20;;;8.10;;
76540;SDS011;65385;55.772;37.658;2022-12-16T03:10:38;11.55;;;5.57;;
76540;SDS011;65385;55.772;37.658;2022-12-16T03:11:44;17.45;;;9.00;;
76540;SDS011;65385;55.772;37.658;2022-12-16T03:12:47;15.10;;;8.15;;
76540;SDS011;65385;55.772;37.658;2022-12-16T03:13:49;17.10;;;8.63;;
76540;SDS011;65385;55.772;37.658;2022-12-16T03:14:52;18.00;;;10.02;;
76540;SDS011;65385;55.772;37.658;2022-12-16T03:15:54;9.55;;;5.63;;
76540;SDS011;65385;55.772;37.658;2022-12-16T03:18:00;12.27;;;6.28;;
76540;SDS011;65385;55.772;37.658;2022-12-16T03:19:03;8.93;;;5.55;;
76540;SDS011;65385;55.772;37.658;2022-12-16T03:20:08;12.80;;;6.75;;
76540;SDS011;65385;55.772;37.658;2022-12-16T03:21:13;7.82;;;4.45;;
76540;SDS011;65385;55.772;37.658;2022-12-16T03:22:26;9.55;;;5.05;;
76540;SDS011;65385;55.772;37.658;2022-12-16T03:23:39;9.30;;;5.30;;
76540;SDS011;65385;55.772;37.658;2022-12-16T03:24:46;8.80;;;5.50;;
76540;SDS011;65385;55.772;37.658;2022-12-16T03:25:48;10.35;;;6.03;;
76540;SDS011;65385;55.772;37.658;2022-12-16T03:27:07;16.67;;;7.85;;
76540;SDS011;65385;55.772;37.658;2022-12-16T03:30:52;17.08;;;8.70;;
76540;SDS011;65385;55.772;37.658;2022-12-16T03:32:01;18.27;;;8.15;;
76540;SDS011;65385;55.772;37.658;2022-12-16T03:33:50;16.08;;;8.30;;
76540;SDS011;65385;55.772;37.658;2022-12-16T03:34:35;9.98;;;6.18;;
76540;SDS011;65385;55.772;37.658;2022-12-16T03:35:48;14.23;;;8.40;;
76540;SDS011;65385;55.772;37.658;2022-12-16T03:36:53;10.15;;;6.43;;
76540;SDS011;65385;55.772;37.658;2022-12-16T03:37:59;15.05;;;7.90;;
76540;SDS011;65385;55.772;37.658;2022-12-16T03:39:03;15.00;;;8.60;;
76540;SDS011;65385;55.772;37.658;2022-12-16T03:40:06;14.43;;;6.90;;
76540;SDS011;65385;55.772;37.658;2022-12-16T03:41:09;12.05;;;7.18;;
76540;SDS011;65385;55.772;37.658;2022-12-16T03:42:12;14.93;;;8.07;;
76540;SDS011;65385;55.772;37.658;2022-12-16T03:43:14;12.95;;;7.88;;
76540;SDS011;65385;55.772;37.658;2022-12-16T03:44:16;17.75;;;9.27;;
76540;SDS011;65385;55.772;37.658;2022-12-16T03:45:27;15.70;;;8.38;;
76540;SDS011;65385;55.772;37.658;2022-12-16T03:46:31;15.63;;;7.05;;
76540;SDS011;65385;55.772;37.658;2022-12-16T03:47:32;16.38;;;8.30;;
76540;SDS011;65385;55.772;37.658;2022-12-16T03:48:33;15.07;;;9.00;;
76540;SDS011;65385;55.772;37.658;2022-12-16T03:49:34;14.07;;;8.32;;
76540;SDS011;65385;55.772;37.658;2022-12-16T03:50:36;17.67;;;9.10;;
76540;SDS011;65385;55.772;37.658;2022-12-16T03:51:37;14.25;;;8.00;;
76540;SDS011;65385;55.772;37.658;2022-12-16T03:52:38;17.92;;;8.55;;
76540;SDS011;65385;55.772;37.658;2022-12-16T03:53:38;16.88;;;9.07;;
76540;SDS011;65385;55.772;37.658;2022-12-16T03:54:39;11.57;;;6.53;;
76540;SDS011;65385;55.772;37.658;2022-12-16T03:55:39;20.05;;;9.82;;
76540;SDS011;65385;55.772;37.658;2022-12-16T03:56:40;11.38;;;6.78;;
76540;SDS011;65385;55.772;37.658;2022-12-16T03:57:41;13.02;;;7.40;;
76540;SDS011;65385;55.772;37.658;2022-12-16T03:58:41;20.45;;;9.55;;
76540;SDS011;65385;55.772;37.658;2022-12-16T03:59:42;18.08;;;9.00;;
76540;SDS011;65385;55.772;37.658;2022-12-16T04:00:42;16.35;;;8.32;;
76540;SDS011;65385;55.772;37.658;2022-12-16T04:01:43;15.90;;;8.27;;
76540;SDS011;65385;55.772;37.658;2022-12-16T04:02:44;16.30;;;9.02;;
76540;SDS011;65385;55.772;37.658;2022-12-16T04:03:44;18.67;;;8.55;;
76540;SDS011;65385;55.772;37.658;2022-12-16T04:04:45;11.10;;;5.45;;
76540;SDS011;65385;55.772;37.658;2022-12-16T04:05:46;17.58;;;8.38;;
76540;SDS011;65385;55.772;37.658;2022-12-16T04:06:46;16.30;;;8.98;;
76540;SDS011;65385;55.772;37.658;2022-12-16T04:08:07;16.17;;;9.15;;
76540;SDS011;65385;55.772;37.658;2022-12-16T04:09:07;19.15;;;9.18;;
76540;SDS011;65385;55.772;37.658;2022-12-16T04:10:08;15.57;;;7.70;;
76540;SDS011;65385;55.772;37.658;2022-12-16T04:11:10;11.27;;;6.72;;
76540;SDS011;65385;55.772;37.658;2022-12-16T04:12:29;16.15;;;7.95;;
76540;SDS011;65385;55.772;37.658;2022-12-16T04:13:49;15.07;;;7.50;;
76540;SDS011;65385;55.772;37.658;2022-12-16T04:15:08;10.18;;;5.90;;
76540;SDS011;65385;55.772;37.658;2022-12-16T04:16:28;17.83;;;8.88;;
76540;SDS011;65385;55.772;37.658;2022-12-16T04:17:48;12.63;;;7.75;;
76540;SDS011;65385;55.772;37.658;2022-12-16T04:19:10;12.93;;;6.95;;
76540;SDS011;65385;55.772;37.658;2022-12-16T04:20:38;12.10;;;7.28;;
76540;SDS011;65385;55.772;37.658;2022-12-16T04:22:00;15.32;;;8.10;;
76540;SDS011;65385;55.772;37.658;2022-12-16T04:23:20;10.52;;;7.00;;
76540;SDS011;65385;55.772;37.658;2022-12-16T04:24:41;19.35;;;9.27;;
76540;SDS011;65385;55.772;37.658;2022-12-16T04:25:42;15.38;;;7.85;;
76540;SDS011;65385;55.772;37.658;2022-12-16T04:26:42;20.55;;;8.82;;
76540;SDS011;65385;55.772;37.658;2022-12-16T04:28:02;19.33;;;9.25;;
76540;SDS011;65385;55.772;37.658;2022-12-16T04:29:03;15.60;;;8.30;;
76540;SDS011;65385;55.772;37.658;2022-12-16T04:30:04;18.13;;;8.38;;
76540;SDS011;65385;55.772;37.658;2022-12-16T04:31:20;18.83;;;8.63;;
76540;SDS011;65385;55.772;37.658;2022-12-16T04:32:21;18.15;;;8.57;;
76540;SDS011;65385;55.772;37.658;2022-12-16T04:33:22;19.63;;;9.80;;
76540;SDS011;65385;55.772;37.658;2022-12-16T04:34:42;15.07;;;8.02;;
76540;SDS011;65385;55.772;37.658;2022-12-16T04:35:42;15.32;;;7.95;;
76540;SDS011;65385;55.772;37.658;2022-12-16T04:37:01;16.33;;;8.40;;
76540;SDS011;65385;55.772;37.658;2022-12-16T04:38:21;15.90;;;8.40;;
76540;SDS011;65385;55.772;37.658;2022-12-16T04:39:40;17.35;;;7.78;;
76540;SDS011;65385;55.772;37.658;2022-12-16T04:41:00;16.90;;;6.82;;
76540;SDS011;65385;55.772;37.658;2022-12-16T04:42:19;11.23;;;7.03;;
76540;SDS011;65385;55.772;37.658;2022-12-16T04:43:38;15.95;;;9.20;;
76540;SDS011;65385;55.772;37.658;2022-12-16T04:44:57;11.80;;;6.93;;
76540;SDS011;65385;55.772;37.658;2022-12-16T04:46:16;13.10;;;7.28;;
76540;SDS011;65385;55.772;37.658;2022-12-16T04:47:36;14.80;;;6.60;;
76540;SDS011;65385;55.772;37.658;2022-12-16T04:48:55;16.33;;;8.20;;
76540;SDS011;65385;55.772;37.658;2022-12-16T04:50:14;15.50;;;8.32;;
76540;SDS011;65385;55.772;37.658;2022-12-16T04:51:33;18.45;;;9.43;;
76540;SDS011;65385;55.772;37.658;2022-12-16T04:52:53;16.80;;;9.13;;
76540;SDS011;65385;55.772;37.658;2022-12-16T04:54:12;17.05;;;8.95;;
76540;SDS011;65385;55.772;37.658;2022-12-16T04:55:32;10.05;;;5.45;;
76540;SDS011;65385;55.772;37.658;2022-12-16T04:56:50;12.77;;;7.43;;
76540;SDS011;65385;55.772;37.658;2022-12-16T04:58:09;17.92;;;8.40;;
76540;SDS011;65385;55.772;37.658;2022-12-16T04:59:28;15.07;;;7.95;;
76540;SDS011;65385;55.772;37.658;2022-12-16T05:00:48;17.58;;;8.30;;
76540;SDS011;65385;55.772;37.658;2022-12-16T05:02:07;14.75;;;7.82;;
76540;SDS011;65385;55.772;37.658;2022-12-16T05:03:27;15.88;;;7.65;;
76540;SDS011;65385;55.772;37.658;2022-12-16T05:04:46;16.30;;;9.65;;
76540;SDS011;65385;55.772;37.658;2022-12-16T05:06:06;16.75;;;8.95;;
76540;SDS011;65385;55.772;37.658;2022-12-16T05:07:25;15.10;;;7.80;;
76540;SDS011;65385;55.772;37.658;2022-12-16T05:08:45;17.85;;;8.82;;
76540;SDS011;65385;55.772;37.658;2022-12-16T05:10:05;19.92;;;8.68;;
76540;SDS011;65385;55.772;37.658;2022-12-16T05:11:24;16.88;;;7.72;;
76540;SDS011;65385;55.772;37.658;2022-12-16T05:12:43;14.43;;;7.30;;
76540;SDS011;65385;55.772;37.658;2022-12-16T05:14:03;14.55;;;6.85;;
76540;SDS011;65385;55.772;37.658;2022-12-16T05:15:22;9.00;;;5.80;;
76540;SDS011;65385;55.772;37.658;2022-12-16T05:16:41;13.90;;;7.95;;
76540;SDS011;65385;55.772;37.658;2022-12-16T05:18:14;13.13;;;8.48;;
76540;SDS011;65385;55.772;37.658;2022-12-16T05:19:34;10.95;;;6.93;;
76540;SDS011;65385;55.772;37.658;2022-12-16T05:20:53;12.70;;;5.60;;
76540;SDS011;65385;55.772;37.658;2022-12-16T05:22:13;13.95;;;8.15;;
76540;SDS011;65385;55.772;37.658;2022-12-16T05:23:32;12.27;;;6.38;;
76540;SDS011;65385;55.772;37.658;2022-12-16T05:24:51;10.52;;;6.32;;
76540;SDS011;65385;55.772;37.658;2022-12-16T05:26:10;9.50;;;6.00;;
76540;SDS011;65385;55.772;37.658;2022-12-16T05:27:30;15.32;;;7.78;;
76540;SDS011;65385;55.772;37.658;2022-12-16T05:28:49;9.15;;;5.00;;
76540;SDS011;65385;55.772;37.658;2022-12-16T05:30:09;12.00;;;6.68;;
76540;SDS011;65385;55.772;37.658;2022-12-16T05:31:33;11.55;;;6.95;;
76540;SDS011;65385;55.772;37.658;2022-12-16T05:32:52;15.30;;;8.00;;
76540;SDS011;65385;55.772;37.658;2022-12-16T05:34:11;13.73;;;7.13;;
76540;SDS011;65385;55.772;37.658;2022-12-16T05:35:30;12.77;;;6.43;;
76540;SDS011;65385;55.772;37.658;2022-12-16T05:36:49;10.60;;;5.93;;
76540;SDS011;65385;55.772;37.658;2022-12-16T05:38:08;12.20;;;6.95;;
76540;SDS011;65385;55.772;37.658;2022-12-16T05:39:27;12.93;;;7.75;;
76540;SDS011;65385;55.772;37.658;2022-12-16T05:40:47;14.07;;;7.22;;
76540;SDS011;65385;55.772;37.658;2022-12-16T05:42:06;12.20;;;7.20;;
76540;SDS011;65385;55.772;37.658;2022-12-16T05:43:25;10.18;;;6.15;;
76540;SDS011;65385;55.772;37.658;2022-12-16T05:44:44;14.32;;;7.70;;
76540;SDS011;65385;55.772;37.658;2022-12-16T05:46:04;12.73;;;6.57;;
76540;SDS011;65385;55.772;37.658;2022-12-16T05:47:23;21.70;;;8.30;;
76540;SDS011;65385;55.772;37.658;2022-12-16T05:48:42;8.77;;;4.70;;
76540;SDS011;65385;55.772;37.658;2022-12-16T05:50:02;10.98;;;5.88;;
76540;SDS011;65385;55.772;37.658;2022-12-16T05:51:21;10.43;;;5.60;;
76540;SDS011;65385;55.772;37.658;2022-12-16T05:52:47;15.35;;;7.05;;
76540;SDS011;65385;55.772;37.658;2022-12-16T05:54:10;13.07;;;6.65;;
76540;SDS011;65385;55.772;37.658;2022-12-16T05:55:29;17.02;;;8.70;;
76540;SDS011;65385;55.772;37.658;2022-12-16T05:56:48;14.70;;;7.78;;
76540;SDS011;65385;55.772;37.658;2022-12-16T05:58:08;16.48;;;7.05;;
76540;SDS011;65385;55.772;37.658;2022-12-16T05:59:27;18.83;;;8.23;;
76540;SDS011;65385;55.772;37.658;2022-12-16T06:00:46;15.32;;;7.95;;
76540;SDS011;65385;55.772;37.658;2022-12-16T06:02:06;15.35;;;6.00;;
76540;SDS011;65385;55.772;37.658;2022-12-16T06:03:25;11.68;;;6.30;;
76540;SDS011;65385;55.772;37.658;2022-12-16T06:04:44;12.65;;;6.32;;
76540;SDS011;65385;55.772;37.658;2022-12-16T06:06:03;9.55;;;5.43;;
76540;SDS011;65385;55.772;37.658;2022-12-16T06:07:36;13.50;;;7.10;;
76540;SDS011;65385;55.772;37.658;2022-12-16T06:08:55;12.02;;;6.47;;
76540;SDS011;65385;55.772;37.658;2022-12-16T06:10:15;19.35;;;8.82;;
76540;SDS011;65385;55.772;37.658;2022-12-16T06:11:34;13.77;;;7.32;;
76540;SDS011;65385;55.772;37.658;2022-12-16T06:12:53;12.85;;;7.32;;
76540;SDS011;65385;55.772;37.658;2022-12-16T06:14:12;8.77;;;4.97;;
76540;SDS011;65385;55.772;37.658;2022-12-16T06:15:32;9.40;;;5.43;;
76540;SDS011;65385;55.772;37.658;2022-12-16T06:16:51;13.20;;;6.43;;
76540;SDS011;65385;55.772;37.658;2022-12-16T06:18:10;13.82;;;6.97;;
76540;SDS011;65385;55.772;37.658;2022-12-16T06:19:29;9.25;;;6.20;;
76540;SDS011;65385;55.772;37.658;2022-12-16T06:20:48;16.92;;;7.57;;
76540;SDS011;65385;55.772;37.658;2022-12-16T06:22:08;14.93;;;7.07;;
76540;SDS011;65385;55.772;37.658;2022-12-16T06:23:27;11.07;;;6.78;;
76540;SDS011;65385;55.772;37.658;2022-12-16T06:24:46;13.75;;;7.38;;
76540;SDS011;65385;55.772;37.658;2022-12-16T06:26:06;9.27;;;6.03;;
76540;SDS011;65385;55.772;37.658;2022-12-16T06:27:25;11.68;;;5.90;;
76540;SDS011;65385;55.772;37.658;2022-12-16T06:28:44;16.13;;;7.22;;
76540;SDS011;65385;55.772;37.658;2022-12-16T06:30:04;10.65;;;5.93;;
76540;SDS011;65385;55.772;37.658;2022-12-16T06:31:24;15.95;;;6.70;;
76540;SDS011;65385;55.772;37.658;2022-12-16T06:32:43;12.73;;;6.57;;
76540;SDS011;65385;55.772;37.658;2022-12-16T06:34:02;13.52;;;7.22;;
76540;SDS011;65385;55.772;37.658;2022-12-16T06:35:22;13.93;;;7.53;;
76540;SDS011;65385;55.772;37.658;2022-12-16T06:36:41;11.30;;;5.70;;
76540;SDS011;65385;55.772;37.658;2022-12-16T06:38:00;16.10;;;9.07;;
76540;SDS011;65385;55.772;37.658;2022-12-16T06:39:20;13.27;;;6.55;;
76540;SDS011;65385;55.772;37.658;2022-12-16T06:40:39;8.02;;;5.18;;
76540;SDS011;65385;55.772;37.658;2022-12-16T06:41:58;10.85;;;6.43;;
76540;SDS011;65385;55.772;37.658;2022-12-16T06:43:17;10.30;;;5.60;;
76540;SDS011;65385;55.772;37.658;2022-12-16T06:44:37;9.40;;;6.03;;
76540;SDS011;65385;55.772;37.658;2022-12-16T06:45:56;11.48;;;6.53;;
76540;SDS011;65385;55.772;37.658;2022-12-16T06:47:15;11.20;;;7.28;;
76540;SDS011;65385;55.772;37.658;2022-12-16T06:48:34;13.40;;;7.07;;
76540;SDS011;65385;55.772;37.658;2022-12-16T06:49:53;11.93;;;6.30;;
76540;SDS011;65385;55.772;37.658;2022-12-16T06:51:13;9.75;;;5.57;;
76540;SDS011;65385;55.772;37.658;2022-12-16T06:52:32;9.93;;;5.30;;
76540;SDS011;65385;55.772;37.658;2022-12-16T06:53:52;11.27;;;4.85;;
76540;SDS011;65385;55.772;37.658;2022-12-16T06:55:11;12.93;;;7.18;;
76540;SDS011;65385;55.772;37.658;2022-12-16T06:56:30;12.75;;;6.72;;
76540;SDS011;65385;55.772;37.658;2022-12-16T06:57:55;10.30;;;6.13;;
76540;SDS011;65385;55.772;37.658;2022-12-16T06:59:15;6.82;;;4.15;;
76540;SDS011;65385;55.772;37.658;2022-12-16T07:00:34;8.50;;;4.80;;
76540;SDS011;65385;55.772;37.658;2022-12-16T07:01:53;9.98;;;5.68;;
76540;SDS011;65385;55.772;37.658;2022-12-16T07:03:13;11.85;;;6.47;;
76540;SDS011;65385;55.772;37.658;2022-12-16T07:04:32;13.65;;;7.35;;
76540;SDS011;65385;55.772;37.658;2022-12-16T07:05:52;12.43;;;7.28;;
76540;SDS011;65385;55.772;37.658;2022-12-16T07:07:11;13.65;;;6.70;;
76540;SDS011;65385;55.772;37.658;2022-12-16T07:08:31;8.80;;;6.47;;
76540;SDS011;65385;55.772;37.658;2022-12-16T07:09:50;9.55;;;5.22;;
76540;SDS011;65385;55.772;37.658;2022-12-16T07:11:09;8.98;;;5.85;;
76540;SDS011;65385;55.772;37.658;2022-12-16T07:12:28;9.85;;;5.22;;
76540;SDS011;65385;55.772;37.658;2022-12-16T07:13:47;10.48;;;5.85;;
76540;SDS011;65385;55.772;37.658;2022-12-16T07:15:06;13.48;;;7.30;;
76540;SDS011;65385;55.772;37.658;2022-12-16T07:16:26;8.57;;;4.60;;
76540;SDS011;65385;55.772;37.658;2022-12-16T07:17:45;8.13;;;4.70;;
76540;SDS011;65385;55.772;37.658;2022-12-16T07:19:04;14.45;;;7.93;;
76540;SDS011;65385;55.772;37.658;2022-12-16T07:20:24;13.60;;;7.75;;